Time;durP1;ratioP1;P1;durP2;ratioP2;P2;SDS_P1;SDS_P2;PMS_P1;PMS_P2;Temp;Humidity;BMP_temperature;BMP_pressure;BME280_temperature;BME280_humidity;BME280_pressure;Samples;Min_cycle;Max_cycle;Signal;HPM_P1;HPM_P2
2022/10/04 04:39:56;;;;;;;6.07;2.42;;;;;;;;;;5024814;23;20050;-56
2022/10/04 04:42:32;;;;;;;5.45;2.35;;;;;;;;;;4975197;28;20117;-57
2022/10/04 04:45:19;;;;;;;5.57;2.20;;;;;;;;;;4974758;28;20034;-57
2022/10/04 04:47:49;;;;;;;5.47;2.40;;;;;;;;;;4955746;29;20066;-56
2022/10/04 04:50:19;;;;;;;5.40;2.10;;;;;;;;;;4955872;29;20465;-55
2022/10/04 04:52:47;;;;;;;8.00;2.38;;;;;;;;;;4955461;29;20031;-57
2022/10/04 04:55:23;;;;;;;9.02;2.38;;;;;;;;;;4955426;29;20050;-67
2022/10/04 04:57:50;;;;;;;7.75;2.25;;;;;;;;;;4955508;29;20166;-56
2022/10/04 05:00:18;;;;;;;9.43;2.95;;;;;;;;;;4955576;29;20368;-60
2022/10/04 05:02:53;;;;;;;7.13;2.35;;;;;;;;;;4955198;28;20028;-57
2022/10/04 05:05:19;;;;;;;6.13;2.08;;;;;;;;;;4955327;29;20033;-58
2022/10/04 05:07:46;;;;;;;6.70;2.40;;;;;;;;;;4955198;29;20158;-61
2022/10/04 05:10:30;;;;;;;6.88;2.35;;;;;;;;;;4955112;29;20424;-57
2022/10/04 05:12:58;;;;;;;6.63;2.80;;;;;;;;;;4955309;29;20054;-57
2022/10/04 05:15:24;;;;;;;14.75;5.40;;;;;;;;;;4957590;28;20043;-62
2022/10/04 05:17:50;;;;;;;9.25;3.53;;;;;;;;;;4956994;28;20023;-56
2022/10/04 05:20:17;;;;;;;5.50;2.67;;;;;;;;;;4963625;28;20505;-68
2022/10/04 05:22:45;;;;;;;9.70;3.10;;;;;;;;;;4964035;28;20023;-56
2022/10/04 05:25:15;;;;;;;7.93;3.15;;;;;;;;;;4962580;28;20050;-57
2022/10/04 05:27:43;;;;;;;7.15;2.20;;;;;;;;;;4962784;28;20034;-57
2022/10/04 05:30:32;;;;;;;6.93;2.42;;;;;;;;;;4964105;28;20104;-57
2022/10/04 05:33:05;;;;;;;7.53;2.70;;;;;;;;;;4880063;29;20036;-80
2022/10/04 05:35:41;;;;;;;6.47;2.88;;;;;;;;;;4887675;29;20198;-57
2022/10/04 05:38:19;;;;;;;7.43;2.97;;;;;;;;;;4879805;29;20029;-67
2022/10/04 05:40:48;;;;;;;5.55;2.95;;;;;;;;;;4866255;29;20040;-56
2022/10/04 05:43:26;;;;;;;6.85;2.25;;;;;;;;;;4865833;29;20033;-57
2022/10/04 05:46:10;;;;;;;6.78;2.58;;;;;;;;;;4865347;29;20459;-57
2022/10/04 05:48:37;;;;;;;6.88;2.70;;;;;;;;;;4866377;29;20040;-57
2022/10/04 05:51:12;;;;;;;7.70;2.95;;;;;;;;;;4864774;29;20044;-58
2022/10/04 05:53:39;;;;;;;5.05;2.47;;;;;;;;;;4866636;29;20041;-57
2022/10/04 05:56:29;;;;;;;7.85;2.10;;;;;;;;;;4866290;29;20036;-57
2022/10/04 05:59:01;;;;;;;4.30;2.00;;;;;;;;;;4775470;30;20505;-57
2022/10/04 06:01:32;;;;;;;5.65;2.30;;;;;;;;;;4775433;30;20070;-66
2022/10/04 06:04:13;;;;;;;7.60;2.20;;;;;;;;;;4774578;30;20050;-71
2022/10/04 06:06:42;;;;;;;6.95;2.40;;;;;;;;;;4773121;30;20032;-58
2022/10/04 06:09:11;;;;;;;7.40;2.40;;;;;;;;;;4780052;29;20095;-73
2022/10/04 06:11:44;;;;;;;7.00;3.05;;;;;;;;;;4844305;29;20042;-60
2022/10/04 06:14:29;;;;;;;4.90;2.50;;;;;;;;;;4842051;29;20077;-59
2022/10/04 06:17:14;;;;;;;7.93;2.65;;;;;;;;;;4827553;29;20451;-64
2022/10/04 06:19:58;;;;;;;5.85;2.65;;;;;;;;;;4845151;29;20045;-59
2022/10/04 06:22:25;;;;;;;6.55;2.00;;;;;;;;;;4843577;29;20037;-59
2022/10/04 06:25:05;;;;;;;5.68;1.95;;;;;;;;;;4844268;29;20030;-59
2022/10/04 06:27:36;;;;;;;4.47;2.33;;;;;;;;;;4829497;29;20038;-59
2022/10/04 06:30:04;;;;;;;8.93;2.42;;;;;;;;;;4845885;29;20085;-58
2022/10/04 06:32:36;;;;;;;4.63;2.67;;;;;;;;;;4844214;29;20395;-59
2022/10/04 06:35:02;;;;;;;;;;;;;;;;;;4851580;29;20044;-59
2022/10/04 06:37:28;;;;;;;6.70;2.60;;;;;;;;;;4942676;29;19907;-60
2022/10/04 06:39:57;;;;;;;11.45;4.25;;;;;;;;;;4941935;29;20403;-60
2022/10/04 06:42:23;;;;;;;8.93;3.60;;;;;;;;;;4940806;29;20105;-58
2022/10/04 06:44:59;;;;;;;5.43;3.35;;;;;;;;;;4942597;29;20036;-57
2022/10/04 06:47:31;;;;;;;8.23;2.58;;;;;;;;;;4924942;29;20396;-57
2022/10/04 06:50:16;;;;;;;4.88;2.30;;;;;;;;;;4924214;29;20468;-71
2022/10/04 06:53:01;;;;;;;8.50;2.67;;;;;;;;;;4935984;29;20032;-57
2022/10/04 06:55:35;;;;;;;7.50;2.88;;;;;;;;;;4941798;29;20114;-57
2022/10/04 06:58:17;;;;;;;9.45;2.90;;;;;;;;;;4943412;29;20024;-57
2022/10/04 07:00:54;;;;;;;5.57;2.50;;;;;;;;;;4940979;29;20151;-63
2022/10/04 07:03:40;;;;;;;7.35;2.03;;;;;;;;;;4946943;29;20030;-57
2022/10/04 07:06:10;;;;;;;5.68;2.30;;;;;;;;;;4953079;29;20027;-57
2022/10/04 07:08:47;;;;;;;8.05;2.60;;;;;;;;;;4953126;29;20539;-57
2022/10/04 07:11:13;;;;;;;5.10;2.28;;;;;;;;;;4953271;29;20027;-61
2022/10/04 07:13:48;;;;;;;6.43;2.20;;;;;;;;;;4951667;28;20043;-58
2022/10/04 07:16:16;;;;;;;8.35;2.28;;;;;;;;;;4952841;29;20035;-57
2022/10/04 07:18:48;;;;;;;8.43;2.50;;;;;;;;;;4952984;29;20030;-70
2022/10/04 07:21:16;;;;;;;6.68;2.33;;;;;;;;;;4952497;29;20037;-59
2022/10/04 07:23:53;;;;;;;9.55;2.55;;;;;;;;;;4952446;29;20019;-59
2022/10/04 07:26:22;;;;;;;6.88;2.25;;;;;;;;;;4951953;28;20082;-57
2022/10/04 07:31:37;;;;;;;5.75;1.90;;;;;;;;;;4953119;29;20455;-57
2022/10/04 07:34:10;;;;;;;9.70;2.35;;;;;;;;;;4952390;29;20471;-58
2022/10/04 07:36:38;;;;;;;7.70;2.47;;;;;;;;;;4952389;29;20073;-71
2022/10/04 07:39:07;;;;;;;4.82;2.10;;;;;;;;;;4952292;29;20055;-57
2022/10/04 07:41:49;;;;;;;10.10;2.83;;;;;;;;;;4952666;29;20086;-57
2022/10/04 07:44:21;;;;;;;5.75;2.38;;;;;;;;;;4952110;29;20110;-57
2022/10/04 07:47:05;;;;;;;6.40;2.42;;;;;;;;;;4952430;29;20794;-57
2022/10/04 07:49:37;;;;;;;5.18;2.55;;;;;;;;;;4952616;29;20035;-57
2022/10/04 07:52:19;;;;;;;8.05;2.85;;;;;;;;;;4952969;29;20024;-57
2022/10/04 07:55:04;;;;;;;6.47;2.30;;;;;;;;;;4952276;29;20042;-58
2022/10/04 07:57:30;;;;;;;8.20;2.33;;;;;;;;;;4952480;29;20042;-72
2022/10/04 08:00:05;;;;;;;4.68;2.30;;;;;;;;;;4952402;29;20023;-56
2022/10/04 08:02:34;;;;;;;5.30;2.30;;;;;;;;;;4952420;29;20023;-64
2022/10/04 08:05:00;;;;;;;4.72;2.40;;;;;;;;;;4952559;29;20023;-57
2022/10/04 08:07:31;;;;;;;8.30;2.40;;;;;;;;;;4952145;29;20405;-65
2022/10/04 08:10:02;;;;;;;11.63;2.70;;;;;;;;;;4948818;29;20106;-57
2022/10/04 08:12:51;;;;;;;5.45;2.55;;;;;;;;;;4932823;29;20043;-57
2022/10/04 08:15:37;;;;;;;8.43;2.38;;;;;;;;;;4855405;29;20064;-59
2022/10/04 08:18:17;;;;;;;7.28;1.83;;;;;;;;;;4855641;29;20124;-58
2022/10/04 08:20:44;;;;;;;9.73;2.30;;;;;;;;;;4848616;29;20132;-60
2022/10/04 08:23:16;;;;;;;7.18;2.10;;;;;;;;;;4856263;29;20034;-60
2022/10/04 08:25:56;;;;;;;7.47;2.10;;;;;;;;;;4855991;29;20046;-59
2022/10/04 08:31:27;;;;;;;7.35;2.58;;;;;;;;;;4856281;29;20041;-62
2022/10/04 08:33:59;;;;;;;13.32;2.97;;;;;;;;;;4859641;29;20041;-63
2022/10/04 08:36:31;;;;;;;6.53;2.03;;;;;;;;;;4890849;29;20036;-70
2022/10/04 08:38:58;;;;;;;6.00;2.63;;;;;;;;;;4896341;29;20098;-60
2022/10/04 08:41:44;;;;;;;6.65;2.20;;;;;;;;;;4895832;29;20406;-58
2022/10/04 08:44:22;;;;;;;7.85;2.28;;;;;;;;;;4896381;29;20461;-67
2022/10/04 08:46:50;;;;;;;8.05;2.30;;;;;;;;;;4889470;29;20124;-58
2022/10/04 08:49:45;;;;;;;6.30;2.20;;;;;;;;;;4896012;29;20029;-59
2022/10/04 08:52:30;;;;;;;5.53;2.10;;;;;;;;;;4856569;29;20041;-59
2022/10/04 08:55:02;;;;;;;5.53;2.10;;;;;;;;;;4880258;29;20037;-58
2022/10/04 08:57:28;;;;;;;;;;;;;;;;;;4883092;29;20075;-58
2022/10/04 09:00:15;;;;;;;4.97;1.83;;;;;;;;;;4886281;29;19939;-58
2022/10/04 09:02:57;;;;;;;6.97;2.70;;;;;;;;;;4884715;29;20139;-58
2022/10/04 09:05:42;;;;;;;5.13;2.15;;;;;;;;;;4877338;29;20049;-58
2022/10/04 09:08:08;;;;;;;7.43;2.53;;;;;;;;;;4878760;29;20076;-60
2022/10/04 09:10:45;;;;;;;6.15;2.58;;;;;;;;;;4884530;29;20111;-58
2022/10/04 09:13:12;;;;;;;7.75;2.72;;;;;;;;;;4885576;29;20024;-58
2022/10/04 09:15:38;;;;;;;6.00;2.45;;;;;;;;;;4884614;29;20541;-57
2022/10/04 09:18:04;;;;;;;3.67;1.75;;;;;;;;;;4883654;29;20823;-59
2022/10/04 09:20:32;;;;;;;7.85;2.45;;;;;;;;;;4885055;29;20047;-58
2022/10/04 09:23:07;;;;;;;6.05;2.50;;;;;;;;;;4885128;29;20033;-59
2022/10/04 09:25:33;;;;;;;8.70;2.25;;;;;;;;;;4884410;29;20037;-59
2022/10/04 09:28:09;;;;;;;9.45;2.63;;;;;;;;;;4898298;29;20435;-59
2022/10/04 09:30:45;;;;;;;5.57;2.00;;;;;;;;;;4944059;29;20028;-59
2022/10/04 09:33:11;;;;;;;11.82;2.95;;;;;;;;;;4935527;29;20030;-58
2022/10/04 09:35:55;;;;;;;6.43;2.22;;;;;;;;;;4943048;29;20036;-58
2022/10/04 09:38:30;;;;;;;4.28;1.70;;;;;;;;;;4933408;29;20608;-62
2022/10/04 09:41:06;;;;;;;8.18;2.00;;;;;;;;;;4941500;29;20125;-66
2022/10/04 09:43:35;;;;;;;8.82;2.30;;;;;;;;;;4950840;29;20038;-58
2022/10/04 09:46:15;;;;;;;5.85;2.30;;;;;;;;;;4954453;29;20067;-58
2022/10/04 09:49:00;;;;;;;6.40;2.30;;;;;;;;;;4936864;29;20436;-62
2022/10/04 09:51:26;;;;;;;15.38;2.85;;;;;;;;;;4953732;29;20755;-73
2022/10/04 09:54:10;;;;;;;7.03;1.83;;;;;;;;;;4944808;29;20032;-60
2022/10/04 09:56:55;;;;;;;5.80;2.10;;;;;;;;;;4935382;29;20039;-60
2022/10/04 09:59:25;;;;;;;7.45;2.20;;;;;;;;;;4934733;29;20051;-59
2022/10/04 10:01:51;;;;;;;7.82;2.30;;;;;;;;;;4934908;29;20038;-59
2022/10/04 10:04:24;;;;;;;6.22;2.30;;;;;;;;;;4946737;29;20035;-59
2022/10/04 10:06:59;;;;;;;8.65;2.70;;;;;;;;;;4953977;29;20026;-60
2022/10/04 10:15:23;;;;;;;7.80;2.47;;;;;;;;;;4953659;29;20619;-59
2022/10/04 10:18:10;;;;;;;7.25;2.70;;;;;;;;;;4950290;29;20082;-73
2022/10/04 10:20:59;;;;;;;7.72;2.22;;;;;;;;;;4953706;29;20030;-73
2022/10/04 10:23:29;;;;;;;6.25;2.40;;;;;;;;;;4953500;29;20031;-60
2022/10/04 10:26:07;;;;;;;5.03;2.38;;;;;;;;;;4953406;29;20023;-63
2022/10/04 10:29:05;;;;;;;3.65;1.60;;;;;;;;;;4953258;29;20035;-68
2022/10/04 10:31:34;;;;;;;7.60;2.42;;;;;;;;;;4875832;29;20032;-58
2022/10/04 10:34:09;;;;;;;7.78;2.40;;;;;;;;;;4875462;29;20426;-58
2022/10/04 10:36:42;;;;;;;10.93;2.10;;;;;;;;;;4875374;29;20025;-61
2022/10/04 10:39:22;;;;;;;6.55;1.80;;;;;;;;;;4875073;29;20049;-58
2022/10/04 10:42:06;;;;;;;6.30;1.83;;;;;;;;;;4875478;29;20037;-68
2022/10/04 10:44:35;;;;;;;5.93;1.88;;;;;;;;;;4875204;29;20528;-59
2022/10/04 10:47:07;;;;;;;6.07;2.00;;;;;;;;;;4866503;29;20062;-59
2022/10/04 10:49:33;;;;;;;;;;;;;;;;;;4857151;29;20029;-59
2022/10/04 10:52:21;;;;;;;7.00;1.98;;;;;;;;;;4856343;29;20344;-59
2022/10/04 10:54:56;;;;;;;7.07;1.80;;;;;;;;;;4856472;29;20050;-63
2022/10/04 10:57:22;;;;;;;7.43;2.15;;;;;;;;;;4856400;29;20215;-67
2022/10/04 11:00:07;;;;;;;9.02;2.30;;;;;;;;;;4855770;29;20609;-62
2022/10/04 11:02:51;;;;;;;8.65;2.00;;;;;;;;;;4856595;29;20033;-61
2022/10/04 11:05:30;;;;;;;12.10;2.17;;;;;;;;;;4856489;29;20125;-61
2022/10/04 11:08:29;;;;;;;8.40;1.90;;;;;;;;;;4920994;29;20503;-61
2022/10/04 11:11:14;;;;;;;6.22;1.77;;;;;;;;;;4933330;29;20115;-61
2022/10/04 11:13:45;;;;;;;7.00;1.52;;;;;;;;;;4933486;29;20042;-61
2022/10/04 11:16:37;;;;;;;9.05;2.08;;;;;;;;;;4916430;29;20071;-61
2022/10/04 11:19:28;;;;;;;5.45;1.80;;;;;;;;;;4929016;29;20496;-60
2022/10/04 11:22:05;;;;;;;9.60;2.13;;;;;;;;;;4932724;29;20036;-69
2022/10/04 11:24:43;;;;;;;8.68;2.10;;;;;;;;;;4950061;29;20759;-67
2022/10/04 11:27:28;;;;;;;4.32;1.95;;;;;;;;;;4952333;29;20031;-60
2022/10/04 11:29:54;;;;;;;5.38;1.88;;;;;;;;;;4952335;29;20027;-59
2022/10/04 11:32:39;;;;;;;7.40;2.22;;;;;;;;;;4951607;29;20031;-61
2022/10/04 11:35:08;;;;;;;6.60;1.98;;;;;;;;;;4949188;29;20043;-60
2022/10/04 11:37:52;;;;;;;3.92;1.50;;;;;;;;;;4951389;29;20455;-61
2022/10/04 11:40:48;;;;;;;6.55;1.80;;;;;;;;;;4951820;29;20051;-61
2022/10/04 11:43:35;;;;;;;4.63;1.73;;;;;;;;;;4873217;29;20059;-65
2022/10/04 11:46:01;;;;;;;5.72;1.90;;;;;;;;;;4873295;29;20044;-59
2022/10/04 11:48:34;;;;;;;4.47;2.08;;;;;;;;;;4873971;29;20508;-69
2022/10/04 11:51:19;;;;;;;5.88;1.60;;;;;;;;;;4873687;29;20026;-61
2022/10/04 11:53:48;;;;;;;7.07;2.13;;;;;;;;;;4873332;29;20040;-62
2022/10/04 11:56:15;;;;;;;4.82;1.83;;;;;;;;;;4873587;29;20442;-61
2022/10/04 11:58:44;;;;;;;13.35;2.10;;;;;;;;;;4873786;29;20040;-61
2022/10/04 12:01:17;;;;;;;6.88;1.70;;;;;;;;;;4874406;29;20523;-60
2022/10/04 12:03:55;;;;;;;4.55;1.70;;;;;;;;;;4874401;29;20036;-61
2022/10/04 12:06:44;;;;;;;6.40;1.70;;;;;;;;;;4873883;29;20084;-61
2022/10/04 12:09:39;;;;;;;3.20;1.45;;;;;;;;;;4864784;29;20037;-60
2022/10/04 12:12:35;;;;;;;5.25;2.20;;;;;;;;;;4803371;29;20121;-60
2022/10/04 12:15:21;;;;;;;7.18;2.17;;;;;;;;;;4804090;29;20046;-61
2022/10/04 12:17:47;;;;;;;8.85;3.05;;;;;;;;;;4804475;29;20146;-60
2022/10/04 12:20:27;;;;;;;9.23;2.63;;;;;;;;;;4858086;29;20128;-62
2022/10/04 12:22:59;;;;;;;8.73;2.30;;;;;;;;;;4877483;29;20041;-70
2022/10/04 12:25:41;;;;;;;7.18;2.60;;;;;;;;;;4877538;29;20051;-61
2022/10/04 12:28:10;;;;;;;6.15;2.20;;;;;;;;;;4877557;29;20033;-59
2022/10/04 12:30:40;;;;;;;5.57;1.73;;;;;;;;;;4877520;29;20044;-62
2022/10/04 12:33:14;;;;;;;4.22;1.90;;;;;;;;;;4877868;29;20860;-60
2022/10/04 12:35:46;;;;;;;4.50;1.88;;;;;;;;;;4877550;29;20160;-61
2022/10/04 12:38:20;;;;;;;9.75;2.05;;;;;;;;;;4876977;29;20070;-60
2022/10/04 12:41:04;;;;;;;6.10;2.20;;;;;;;;;;4877064;29;20398;-61
2022/10/04 12:43:45;;;;;;;9.85;3.17;;;;;;;;;;4877380;29;20029;-59
2022/10/04 12:46:30;;;;;;;7.05;3.10;;;;;;;;;;4876723;29;20065;-60
2022/10/04 12:49:06;;;;;;;9.40;3.78;;;;;;;;;;4921899;29;20035;-60
2022/10/04 12:51:38;;;;;;;5.75;2.95;;;;;;;;;;4955541;29;20079;-59
2022/10/04 12:54:07;;;;;;;6.20;1.90;;;;;;;;;;4955124;29;20118;-59
2022/10/04 12:56:43;;;;;;;4.80;1.77;;;;;;;;;;4954674;29;20028;-60
2022/10/04 12:59:12;;;;;;;5.40;1.80;;;;;;;;;;4954985;29;20062;-60
2022/10/04 13:01:50;;;;;;;5.72;2.13;;;;;;;;;;4954846;29;20046;-59
2022/10/04 13:04:19;;;;;;;6.60;1.70;;;;;;;;;;4954963;29;20358;-59
2022/10/04 13:06:48;;;;;;;2.95;1.25;;;;;;;;;;4954800;29;20045;-67
2022/10/04 13:09:33;;;;;;;2.63;1.10;;;;;;;;;;4954724;29;20034;-59
2022/10/04 13:12:02;;;;;;;4.13;1.50;;;;;;;;;;4954898;29;20110;-59
2022/10/04 13:14:28;;;;;;;4.20;1.55;;;;;;;;;;4954834;29;20059;-59
2022/10/04 13:17:03;;;;;;;3.88;1.40;;;;;;;;;;4954741;29;20027;-60
2022/10/04 13:19:48;;;;;;;3.20;1.58;;;;;;;;;;4954682;29;20126;-59
2022/10/04 13:22:14;;;;;;;6.00;1.83;;;;;;;;;;4953973;28;20371;-66
2022/10/04 13:24:56;;;;;;;4.13;1.42;;;;;;;;;;4954494;29;20035;-64
2022/10/04 13:27:41;;;;;;;3.20;1.23;;;;;;;;;;4954727;29;20115;-60
2022/10/04 13:30:25;;;;;;;3.28;1.10;;;;;;;;;;4954479;29;20035;-60
2022/10/04 13:32:57;;;;;;;3.95;1.20;;;;;;;;;;4954473;29;20525;-61
2022/10/04 13:35:23;;;;;;;;;;;;;;;;;;4954890;29;20047;-61
2022/10/04 13:37:58;;;;;;;4.35;1.20;;;;;;;;;;4937102;29;19911;-60
2022/10/04 13:40:43;;;;;;;4.22;1.50;;;;;;;;;;4954390;29;20046;-61
2022/10/04 13:43:21;;;;;;;5.43;2.10;;;;;;;;;;4954164;29;20489;-61
2022/10/04 13:46:07;;;;;;;7.22;2.10;;;;;;;;;;4954472;29;20047;-58
2022/10/04 13:48:47;;;;;;;4.28;1.88;;;;;;;;;;4954245;29;20031;-59
2022/10/04 13:51:13;;;;;;;3.85;1.40;;;;;;;;;;4954308;29;20031;-64
2022/10/04 13:56:44;;;;;;;5.30;1.58;;;;;;;;;;4951803;29;20061;-66
2022/10/04 13:59:20;;;;;;;5.18;1.33;;;;;;;;;;4917753;29;20114;-58
2022/10/04 14:01:58;;;;;;;5.47;1.42;;;;;;;;;;4935307;29;20098;-66
2022/10/04 14:04:24;;;;;;;4.03;1.15;;;;;;;;;;4935096;29;20059;-60
2022/10/04 14:07:11;;;;;;;4.80;1.10;;;;;;;;;;4935079;29;20111;-63
2022/10/04 14:09:37;;;;;;;4.50;1.15;;;;;;;;;;4935049;29;20032;-58
2022/10/04 14:12:24;;;;;;;4.57;1.42;;;;;;;;;;4949113;29;20472;-57
2022/10/04 14:14:56;;;;;;;2.95;1.30;;;;;;;;;;4934548;29;20044;-62
2022/10/04 14:17:41;;;;;;;3.30;1.10;;;;;;;;;;4936817;29;20023;-64
2022/10/04 14:20:22;;;;;;;3.83;0.93;;;;;;;;;;4946228;29;20035;-65
2022/10/04 14:23:07;;;;;;;2.88;1.13;;;;;;;;;;4953858;29;20027;-63
2022/10/04 14:25:45;;;;;;;2.17;1.20;;;;;;;;;;4952046;29;20035;-63
2022/10/04 14:28:31;;;;;;;3.28;1.20;;;;;;;;;;4934971;29;20496;-61
2022/10/04 14:31:03;;;;;;;4.50;1.48;;;;;;;;;;4935059;29;20049;-66
2022/10/04 14:33:39;;;;;;;4.53;1.10;;;;;;;;;;4934309;29;20050;-66
2022/10/04 14:36:18;;;;;;;7.13;1.60;;;;;;;;;;4940090;29;20043;-68
2022/10/04 14:39:03;;;;;;;3.45;1.50;;;;;;;;;;4945872;29;20129;-65
2022/10/04 14:41:29;;;;;;;3.63;1.27;;;;;;;;;;4940989;29;20027;-63
2022/10/04 14:44:13;;;;;;;5.32;1.60;;;;;;;;;;4944802;29;20066;-65
2022/10/04 14:46:39;;;;;;;3.80;1.38;;;;;;;;;;4941006;29;20706;-59
2022/10/04 14:49:24;;;;;;;6.40;1.90;;;;;;;;;;4943312;29;20055;-68
2022/10/04 14:51:56;;;;;;;5.40;1.45;;;;;;;;;;4940376;29;20094;-59
2022/10/04 14:54:24;;;;;;;3.00;1.25;;;;;;;;;;4926147;29;20447;-66
2022/10/04 14:57:09;;;;;;;6.68;1.70;;;;;;;;;;4941787;29;20027;-59
2022/10/04 15:00:02;;;;;;;4.05;1.83;;;;;;;;;;4940618;29;20102;-59
2022/10/04 15:02:30;;;;;;;3.80;1.77;;;;;;;;;;4939277;29;20036;-60
2022/10/04 15:05:15;;;;;;;3.25;1.63;;;;;;;;;;4941059;29;20689;-60
2022/10/04 15:07:45;;;;;;;3.75;1.80;;;;;;;;;;4940448;29;20138;-66
2022/10/04 15:10:26;;;;;;;6.13;2.03;;;;;;;;;;4943035;29;20031;-60
2022/10/04 15:12:55;;;;;;;5.32;1.63;;;;;;;;;;4940210;29;20035;-60
2022/10/04 15:15:27;;;;;;;5.28;1.95;;;;;;;;;;4942152;29;20039;-60
2022/10/04 15:17:56;;;;;;;4.68;1.90;;;;;;;;;;4942934;29;20032;-59
2022/10/04 15:20:23;;;;;;;3.65;1.90;;;;;;;;;;4941996;29;20035;-60
2022/10/04 15:22:52;;;;;;;5.47;1.85;;;;;;;;;;4941316;29;20031;-65
2022/10/04 15:25:41;;;;;;;6.03;2.40;;;;;;;;;;4940571;29;20098;-61
2022/10/04 15:28:27;;;;;;;7.80;3.75;;;;;;;;;;4939801;29;20027;-59
2022/10/04 15:31:13;;;;;;;10.38;4.28;;;;;;;;;;4944657;29;20031;-59
2022/10/04 15:33:58;;;;;;;10.35;5.63;;;;;;;;;;4936760;29;20027;-67
2022/10/04 15:36:24;;;;;;;14.88;5.43;;;;;;;;;;4932873;29;20129;-62
2022/10/04 15:39:03;;;;;;;6.15;2.95;;;;;;;;;;4932642;29;20127;-64
2022/10/04 15:41:48;;;;;;;6.97;2.67;;;;;;;;;;4933592;29;20086;-64
2022/10/04 15:44:15;;;;;;;6.68;2.70;;;;;;;;;;4937808;29;20031;-65
2022/10/04 15:46:55;;;;;;;6.72;2.25;;;;;;;;;;4942433;29;20075;-64
2022/10/04 15:49:27;;;;;;;7.00;2.58;;;;;;;;;;4940756;29;20030;-63
2022/10/04 15:52:02;;;;;;;7.63;2.92;;;;;;;;;;4941118;29;20022;-68
2022/10/04 15:54:34;;;;;;;6.22;2.78;;;;;;;;;;4939831;29;20530;-61
2022/10/04 15:57:18;;;;;;;6.93;3.30;;;;;;;;;;4942622;29;20685;-61
2022/10/04 16:00:03;;;;;;;8.02;3.60;;;;;;;;;;4939988;29;20031;-67
2022/10/04 16:02:33;;;;;;;6.03;2.88;;;;;;;;;;4947489;29;20075;-60
